Time,TemperatureF,DewpointF,PressureIn,WindDirection,WindDirectionDegrees,WindSpeedMPH,WindSpeedGustMPH,Humidity,HourlyPrecipIn,Conditions,Clouds,dailyrainin,SoftwareType,DateUTC
2013-04-15 00:44:00,28.4,25.8,29.83,NNE,22,0.0,-999.0,90,-99.99,,,0.00,Acu-Link.com,2013-04-15 07:44:00,
2013-04-15 01:00:00,28.4,26.1,29.83,West,270,0.0,-999.0,91,-99.99,,,0.00,Acu-Link.com,2013-04-15 08:00:00,
2013-04-15 01:15:00,28.4,26.1,29.83,West,270,0.0,-999.0,91,-99.99,,,0.00,Acu-Link.com,2013-04-15 08:15:00,
2013-04-15 01:30:00,28.4,25.6,29.83,SSW,202,0.0,-999.0,89,-99.99,,,0.00,Acu-Link.com,2013-04-15 08:30:00,
2013-04-15 01:45:00,26.6,23.5,29.83,ENE,67,0.0,-999.0,88,-99.99,,,0.00,Acu-Link.com,2013-04-15 08:45:00,
2013-04-15 02:01:00,26.6,23.5,29.83,South,180,0.0,-999.0,88,-99.99,,,0.00,Acu-Link.com,2013-04-15 09:01:00,
2013-04-15 02:16:00,28.4,25.8,29.84,North,0,0.0,-999.0,90,-99.99,,,0.00,Acu-Link.com,2013-04-15 09:16:00,
2013-04-15 02:46:00,28.4,25.8,29.84,SW,225,0.0,-999.0,90,-99.99,,,0.00,Acu-Link.com,2013-04-15 09:46:00,
2013-04-15 03:01:00,28.4,25.8,29.84,SW,225,0.0,-999.0,90,-99.99,,,0.00,Acu-Link.com,2013-04-15 10:01:00,
2013-04-15 03:16:00,28.4,25.8,29.85,South,180,0.0,-999.0,90,-99.99,,,0.00,Acu-Link.com,2013-04-15 10:16:00,
2013-04-15 03:31:00,28.4,25.6,29.85,WSW,247,0.0,-999.0,89,-99.99,,,0.00,Acu-Link.com,2013-04-15 10:31:00,
2013-04-15 04:02:00,28.4,25.8,29.85,South,180,0.0,-999.0,90,-99.99,,,0.00,Acu-Link.com,2013-04-15 11:02:00,
2013-04-15 04:17:00,28.4,25.8,29.86,SSW,202,0.0,-999.0,90,-99.99,,,0.00,Acu-Link.com,2013-04-15 11:17:00,
2013-04-15 04:32:00,28.4,25.8,29.86,SW,225,0.0,-999.0,90,-99.99,,,0.00,Acu-Link.com,2013-04-15 11:32:00,
2013-04-15 04:48:00,28.4,25.8,29.86,South,180,0.0,-999.0,90,-99.99,,,0.00,Acu-Link.com,2013-04-15 11:48:00,
2013-04-15 05:03:00,28.4,25.8,29.86,WSW,247,0.0,-999.0,90,-99.99,,,0.00,Acu-Link.com,2013-04-15 12:03:00,
2013-04-15 05:18:00,28.4,25.8,29.86,West,270,0.0,-999.0,90,-99.99,,,0.00,Acu-Link.com,2013-04-15 12:18:00,
2013-04-15 05:33:00,28.4,26.1,29.87,SW,225,0.0,-999.0,91,-99.99,,,0.00,Acu-Link.com,2013-04-15 12:33:00,
2013-04-15 05:48:00,28.4,26.1,29.87,West,270,0.0,-999.0,91,-99.99,,,0.00,Acu-Link.com,2013-04-15 12:48:00,
2013-04-15 06:04:00,28.4,27.7,29.88,WSW,247,0.0,-999.0,97,-99.99,,,0.00,Acu-Link.com,2013-04-15 13:04:00,
2013-04-15 06:19:00,28.4,26.1,29.88,SE,135,0.0,-999.0,91,-99.99,,,0.00,Acu-Link.com,2013-04-15 13:19:00,
2013-04-15 06:34:00,28.4,26.4,29.88,South,180,0.0,-999.0,92,-99.99,,,0.00,Acu-Link.com,2013-04-15 13:34:00,
2013-04-15 06:50:00,28.4,27.9,29.89,WNW,292,2.7,-999.0,98,-99.99,,,0.00,Acu-Link.com,2013-04-15 13:50:00,
2013-04-15 07:05:00,28.4,26.1,29.90,NW,315,0.0,-999.0,91,-99.99,,,0.00,Acu-Link.com,2013-04-15 14:05:00,
2013-04-15 07:20:00,28.4,26.1,29.91,East,90,0.0,-999.0,91,-99.99,,,0.00,Acu-Link.com,2013-04-15 14:20:00,
2013-04-15 07:35:00,28.4,26.1,29.91,SE,135,0.0,-999.0,91,-99.99,,,0.00,Acu-Link.com,2013-04-15 14:35:00,
2013-04-15 07:51:00,28.4,25.8,29.92,NNW,337,2.0,-999.0,90,-99.99,,,0.00,Acu-Link.com,2013-04-15 14:51:00,
2013-04-15 08:06:00,28.4,25.8,29.93,NNE,22,0.0,-999.0,90,-99.99,,,0.00,Acu-Link.com,2013-04-15 15:06:00,
2013-04-15 08:52:00,32.0,27.7,29.94,NNE,22,0.0,-999.0,84,-99.99,,,0.00,Acu-Link.com,2013-04-15 15:52:00,
2013-04-15 09:07:00,32.0,26.8,29.94,North,0,2.7,-999.0,81,-99.99,,,0.00,Acu-Link.com,2013-04-15 16:07:00,
2013-04-15 09:22:00,33.8,28.3,29.94,SSE,157,1.1,-999.0,80,-99.99,,,0.00,Acu-Link.com,2013-04-15 16:22:00,
2013-04-15 09:37:00,35.6,29.1,29.94,West,270,3.6,-999.0,77,-99.99,,,0.00,Acu-Link.com,2013-04-15 16:37:00,
2013-04-15 09:52:00,35.6,28.1,29.94,WNW,292,2.0,-999.0,74,-99.99,,,0.00,Acu-Link.com,2013-04-15 16:52:00,
2013-04-15 10:08:00,35.6,26.5,29.94,West,270,1.6,-999.0,69,-99.99,,,0.00,Acu-Link.com,2013-04-15 17:08:00,
2013-04-15 10:23:00,39.2,27.7,29.95,East,90,1.6,-999.0,63,-99.99,,,0.00,Acu-Link.com,2013-04-15 17:23:00,
2013-04-15 10:38:00,41.0,28.2,29.95,SW,225,4.7,-999.0,60,-99.99,,,0.00,Acu-Link.com,2013-04-15 17:38:00,
2013-04-15 10:54:00,41.0,25.6,29.95,NE,45,2.7,-999.0,54,-99.99,,,0.00,Acu-Link.com,2013-04-15 17:54:00,
2013-04-15 11:09:00,41.0,23.8,29.95,ENE,67,2.0,-999.0,50,-99.99,,,0.00,Acu-Link.com,2013-04-15 18:09:00,
2013-04-15 11:24:00,42.8,24.0,29.95,West,270,3.6,-999.0,47,-99.99,,,0.00,Acu-Link.com,2013-04-15 18:24:00,
2013-04-15 11:39:00,39.2,19.7,29.95,WNW,292,1.6,-999.0,45,-99.99,,,0.00,Acu-Link.com,2013-04-15 18:39:00,
2013-04-15 11:55:00,41.0,19.7,29.96,SW,225,2.7,-999.0,42,-99.99,,,0.00,Acu-Link.com,2013-04-15 18:55:00,
2013-04-15 12:10:00,42.8,19.6,29.96,NW,315,2.0,-999.0,39,-99.99,,,0.00,Acu-Link.com,2013-04-15 19:10:00,
2013-04-15 12:25:00,46.4,24.6,29.96,WSW,247,2.7,-999.0,42,-99.99,,,0.00,Acu-Link.com,2013-04-15 19:25:00,
2013-04-15 12:40:00,44.6,23.5,29.95,SE,135,2.0,-999.0,43,-99.99,,,0.00,Acu-Link.com,2013-04-15 19:40:00,
2013-04-15 12:55:00,42.8,22.9,29.95,ESE,112,3.6,-999.0,45,-99.99,,,0.00,Acu-Link.com,2013-04-15 19:55:00,
2013-04-15 13:10:00,42.8,25.0,29.96,NNE,22,1.6,-999.0,49,-99.99,,,0.00,Acu-Link.com,2013-04-15 20:10:00,
2013-04-15 13:25:00,42.8,22.4,29.96,ENE,67,1.6,-999.0,44,-99.99,,,0.00,Acu-Link.com,2013-04-15 20:25:00,
2013-04-15 13:40:00,41.0,22.8,29.96,East,90,2.7,-999.0,48,-99.99,,,0.00,Acu-Link.com,2013-04-15 20:40:00,
2013-04-15 13:56:00,41.0,21.3,29.97,SW,225,3.6,-999.0,45,-99.99,,,0.00,Acu-Link.com,2013-04-15 20:56:00,
2013-04-15 14:11:00,42.8,23.5,29.96,SW,225,2.7,-999.0,46,-99.99,,,0.00,Acu-Link.com,2013-04-15 21:11:00,
2013-04-15 14:26:00,42.8,22.9,29.97,NNW,337,2.0,-999.0,45,-99.99,,,0.00,Acu-Link.com,2013-04-15 21:26:00,
2013-04-15 14:41:00,42.8,22.4,29.97,WNW,292,3.1,-999.0,44,-99.99,,,0.00,Acu-Link.com,2013-04-15 21:41:00,
2013-04-15 14:57:00,41.0,21.8,29.98,SW,225,4.0,-999.0,46,-99.99,,,0.00,Acu-Link.com,2013-04-15 21:57:00,
2013-04-15 15:12:00,42.8,22.9,29.97,NE,45,0.0,-999.0,45,-99.99,,,0.00,Acu-Link.com,2013-04-15 22:12:00,
2013-04-15 15:27:00,42.8,21.3,29.97,South,180,2.0,-999.0,42,-99.99,,,0.00,Acu-Link.com,2013-04-15 22:27:00,
2013-04-15 15:42:00,42.8,20.8,29.97,North,0,0.0,-999.0,41,-99.99,,,0.00,Acu-Link.com,2013-04-15 22:42:00,
2013-04-15 15:57:00,44.6,21.8,29.97,SSE,157,1.6,-999.0,40,-99.99,,,0.00,Acu-Link.com,2013-04-15 22:57:00,
2013-04-15 16:13:00,44.6,20.6,29.97,West,270,4.7,-999.0,38,-99.99,,,0.00,Acu-Link.com,2013-04-15 23:13:00,
2013-04-15 16:28:00,44.6,20.6,29.98,WSW,247,1.6,-999.0,38,-99.99,,,0.00,Acu-Link.com,2013-04-15 23:28:00,
2013-04-15 16:43:00,44.6,22.9,29.98,SW,225,1.6,-999.0,42,-99.99,,,0.00,Acu-Link.com,2013-04-15 23:43:00,
2013-04-15 16:58:00,44.6,23.5,29.99,South,180,1.6,-999.0,43,-99.99,,,0.00,Acu-Link.com,2013-04-15 23:58:00,
2013-04-15 17:13:00,41.0,26.9,29.99,SSE,157,0.0,-999.0,57,-99.99,,,0.00,Acu-Link.com,2013-04-16 00:13:00,
2013-04-15 17:28:00,41.0,27.8,29.99,NE,45,1.1,-999.0,59,-99.99,,,0.00,Acu-Link.com,2013-04-16 00:28:00,
2013-04-15 17:43:00,41.0,25.6,30.00,ESE,112,0.0,-999.0,54,-99.99,,,0.00,Acu-Link.com,2013-04-16 00:43:00,
2013-04-15 17:58:00,42.8,26.4,30.00,ESE,112,1.6,-999.0,52,-99.99,,,0.00,Acu-Link.com,2013-04-16 00:58:00,
2013-04-15 18:13:00,42.8,25.9,30.00,West,270,0.0,-999.0,51,-99.99,,,0.00,Acu-Link.com,2013-04-16 01:13:00,
2013-04-15 18:28:00,41.0,23.3,30.00,West,270,0.0,-999.0,49,-99.99,,,0.00,Acu-Link.com,2013-04-16 01:28:00,
2013-04-15 18:44:00,41.0,23.3,30.01,West,270,1.1,-999.0,49,-99.99,,,0.00,Acu-Link.com,2013-04-16 01:44:00,
2013-04-15 18:59:00,41.0,22.8,30.01,WSW,247,0.0,-999.0,48,-99.99,,,0.00,Acu-Link.com,2013-04-16 01:59:00,
2013-04-15 19:14:00,39.2,22.6,30.01,East,90,0.0,-999.0,51,-99.99,,,0.00,Acu-Link.com,2013-04-16 02:14:00,
2013-04-15 19:29:00,37.4,22.3,30.02,East,90,0.0,-999.0,54,-99.99,,,0.00,Acu-Link.com,2013-04-16 02:29:00,
2013-04-15 19:44:00,37.4,21.9,30.02,East,90,0.0,-999.0,53,-99.99,,,0.00,Acu-Link.com,2013-04-16 02:44:00,
2013-04-15 19:59:00,35.6,21.5,30.02,NE,45,0.0,-999.0,56,-99.99,,,0.00,Acu-Link.com,2013-04-16 02:59:00,
2013-04-15 20:14:00,35.6,22.7,30.03,West,270,0.0,-999.0,59,-99.99,,,0.00,Acu-Link.com,2013-04-16 03:14:00,
2013-04-15 20:29:00,35.6,23.1,30.04,ENE,67,0.0,-999.0,60,-99.99,,,0.00,Acu-Link.com,2013-04-16 03:29:00,
2013-04-15 20:45:00,35.6,23.1,30.04,NNE,22,0.0,-999.0,60,-99.99,,,0.00,Acu-Link.com,2013-04-16 03:45:00,
2013-04-15 21:00:00,33.8,21.4,30.05,NNE,22,0.0,-999.0,60,-99.99,,,0.00,Acu-Link.com,2013-04-16 04:00:00,
2013-04-15 21:15:00,33.8,21.4,30.05,ENE,67,0.0,-999.0,60,-99.99,,,0.00,Acu-Link.com,2013-04-16 04:15:00,
2013-04-15 21:30:00,33.8,21.4,30.06,ENE,67,0.0,-999.0,60,-99.99,,,0.00,Acu-Link.com,2013-04-16 04:30:00,
2013-04-15 21:46:00,33.8,22.2,30.07,NNE,22,0.0,-999.0,62,-99.99,,,0.00,Acu-Link.com,2013-04-16 04:46:00,
2013-04-15 22:01:00,33.8,22.2,30.07,NNE,22,0.0,-999.0,62,-99.99,,,0.00,Acu-Link.com,2013-04-16 05:01:00,
2013-04-15 22:16:00,33.8,22.2,30.07,WSW,247,0.0,-999.0,62,-99.99,,,0.00,Acu-Link.com,2013-04-16 05:16:00,
2013-04-15 22:31:00,33.8,23.3,30.06,NNE,22,0.0,-999.0,65,-99.99,,,0.00,Acu-Link.com,2013-04-16 05:31:00,
2013-04-15 22:46:00,32.0,22.3,30.07,East,90,2.7,-999.0,67,-99.99,,,0.00,Acu-Link.com,2013-04-16 05:46:00,
2013-04-15 23:01:00,32.0,23.3,30.07,NNW,337,0.0,-999.0,70,-99.99,,,0.00,Acu-Link.com,2013-04-16 06:01:00,
2013-04-15 23:16:00,32.0,23.7,30.08,East,90,0.0,-999.0,71,-99.99,,,0.00,Acu-Link.com,2013-04-16 06:16:00,
2013-04-15 23:31:00,30.2,22.3,30.08,WSW,247,0.0,-999.0,72,-99.99,,,0.00,Acu-Link.com,2013-04-16 06:31:00,
2013-04-15 23:46:00,30.2,22.9,30.08,ENE,67,2.0,-999.0,74,-99.99,,,0.00,Acu-Link.com,2013-04-16 06:46:00,